Terminal Aerodrome Forecast
Issued by NWS

Home | Current Version | Previous Version | Text Only | Print | Product List | Glossary On
Versions: 1 2 3 4 5 6 7 8 9 10 11 12 13 14 15 16 17 18 19 20 21 22 23 24 25 26 27 28 29 30 31 32 33 34 35 36 37 38
853
FTUS41 KBOX 240532
TAFBED
TAF
KBED 240532Z 2406/2506 00000KT P6SM SCT130
     FM241100 18003KT P6SM OVC250
     FM241500 20008KT P6SM VCSH OVC070
     FM242300 22008KT P6SM OVC035
     FM250000 22008KT P6SM OVC025
     FM250200 23007KT P6SM OVC050=

USA.gov is the U.S. government's official web portal to all federal, state and local government web resources and services.